sensor_id;sensor_type;location;lat;lon;timestamp;P1;durP1;ratioP1;P2;durP2;ratioP2
76574;SDS011;65439;50.948;6.988;2023-04-07T00:02:02;22.83;;;15.13;;
76574;SDS011;65439;50.948;6.988;2023-04-07T00:04:27;24.37;;;15.30;;
76574;SDS011;65439;50.948;6.988;2023-04-07T00:06:52;22.20;;;15.17;;
76574;SDS011;65439;50.948;6.988;2023-04-07T00:09:17;17.63;;;12.93;;
76574;SDS011;65439;50.948;6.988;2023-04-07T00:11:43;20.53;;;13.97;;
76574;SDS011;65439;50.948;6.988;2023-04-07T00:14:08;22.40;;;15.13;;
76574;SDS011;65439;50.948;6.988;2023-04-07T00:16:33;21.40;;;14.80;;
76574;SDS011;65439;50.948;6.988;2023-04-07T00:18:59;19.50;;;14.40;;
76574;SDS011;65439;50.948;6.988;2023-04-07T00:21:24;19.15;;;14.65;;
76574;SDS011;65439;50.948;6.988;2023-04-07T00:23:51;20.17;;;14.43;;
76574;SDS011;65439;50.948;6.988;2023-04-07T00:26:16;24.13;;;15.50;;
76574;SDS011;65439;50.948;6.988;2023-04-07T00:28:41;20.45;;;14.70;;
76574;SDS011;65439;50.948;6.988;2023-04-07T00:31:06;23.13;;;16.23;;
76574;SDS011;65439;50.948;6.988;2023-04-07T00:33:32;26.47;;;16.17;;
76574;SDS011;65439;50.948;6.988;2023-04-07T00:35:57;23.17;;;15.67;;
76574;SDS011;65439;50.948;6.988;2023-04-07T00:38:22;25.67;;;17.13;;
76574;SDS011;65439;50.948;6.988;2023-04-07T00:40:48;24.00;;;17.00;;
76574;SDS011;65439;50.948;6.988;2023-04-07T00:43:13;24.10;;;16.97;;
76574;SDS011;65439;50.948;6.988;2023-04-07T00:45:38;34.47;;;18.77;;
76574;SDS011;65439;50.948;6.988;2023-04-07T00:48:04;21.60;;;15.68;;
76574;SDS011;65439;50.948;6.988;2023-04-07T00:50:29;24.42;;;17.30;;
76574;SDS011;65439;50.948;6.988;2023-04-07T00:52:55;29.02;;;17.17;;
76574;SDS011;65439;50.948;6.988;2023-04-07T00:55:21;23.08;;;15.85;;
76574;SDS011;65439;50.948;6.988;2023-04-07T00:57:53;26.02;;;16.88;;
76574;SDS011;65439;50.948;6.988;2023-04-07T01:00:18;23.00;;;15.38;;
76574;SDS011;65439;50.948;6.988;2023-04-07T01:02:45;23.75;;;16.00;;
76574;SDS011;65439;50.948;6.988;2023-04-07T01:05:20;24.10;;;17.85;;
76574;SDS011;65439;50.948;6.988;2023-04-07T01:10:33;26.08;;;17.95;;
76574;SDS011;65439;50.948;6.988;2023-04-07T01:13:02;30.27;;;19.45;;
76574;SDS011;65439;50.948;6.988;2023-04-07T01:15:30;25.40;;;18.60;;
76574;SDS011;65439;50.948;6.988;2023-04-07T01:18:05;24.90;;;18.52;;
76574;SDS011;65439;50.948;6.988;2023-04-07T01:20:35;26.88;;;17.45;;
76574;SDS011;65439;50.948;6.988;2023-04-07T01:23:03;28.30;;;18.65;;
76574;SDS011;65439;50.948;6.988;2023-04-07T01:25:34;26.63;;;17.08;;
76574;SDS011;65439;50.948;6.988;2023-04-07T01:30:51;27.45;;;18.15;;
76574;SDS011;65439;50.948;6.988;2023-04-07T01:33:18;27.50;;;18.50;;
76574;SDS011;65439;50.948;6.988;2023-04-07T01:35:44;28.15;;;17.63;;
76574;SDS011;65439;50.948;6.988;2023-04-07T01:38:10;28.00;;;18.75;;
76574;SDS011;65439;50.948;6.988;2023-04-07T01:40:36;29.70;;;18.73;;
76574;SDS011;65439;50.948;6.988;2023-04-07T01:43:02;26.38;;;18.85;;
76574;SDS011;65439;50.948;6.988;2023-04-07T01:45:28;26.17;;;17.80;;
76574;SDS011;65439;50.948;6.988;2023-04-07T01:47:54;30.52;;;19.38;;
76574;SDS011;65439;50.948;6.988;2023-04-07T01:50:20;28.25;;;19.80;;
76574;SDS011;65439;50.948;6.988;2023-04-07T01:52:46;28.90;;;18.67;;
76574;SDS011;65439;50.948;6.988;2023-04-07T01:55:11;28.27;;;19.33;;
76574;SDS011;65439;50.948;6.988;2023-04-07T01:57:36;34.17;;;21.37;;
76574;SDS011;65439;50.948;6.988;2023-04-07T02:00:02;27.50;;;18.30;;
76574;SDS011;65439;50.948;6.988;2023-04-07T02:02:28;32.47;;;19.58;;
76574;SDS011;65439;50.948;6.988;2023-04-07T02:04:54;34.03;;;19.37;;
76574;SDS011;65439;50.948;6.988;2023-04-07T02:07:22;35.33;;;21.15;;
76574;SDS011;65439;50.948;6.988;2023-04-07T02:09:51;36.35;;;21.40;;
76574;SDS011;65439;50.948;6.988;2023-04-07T02:12:23;33.70;;;20.27;;
76574;SDS011;65439;50.948;6.988;2023-04-07T02:14:51;35.55;;;20.95;;
76574;SDS011;65439;50.948;6.988;2023-04-07T02:17:17;36.38;;;22.02;;
76574;SDS011;65439;50.948;6.988;2023-04-07T02:19:43;33.42;;;21.33;;
76574;SDS011;65439;50.948;6.988;2023-04-07T02:22:09;33.67;;;21.80;;
76574;SDS011;65439;50.948;6.988;2023-04-07T02:24:35;37.08;;;20.23;;
76574;SDS011;65439;50.948;6.988;2023-04-07T02:27:00;35.35;;;20.80;;
76574;SDS011;65439;50.948;6.988;2023-04-07T02:29:26;34.92;;;22.13;;
76574;SDS011;65439;50.948;6.988;2023-04-07T02:31:51;43.95;;;23.08;;
76574;SDS011;65439;50.948;6.988;2023-04-07T02:34:16;35.27;;;21.53;;
76574;SDS011;65439;50.948;6.988;2023-04-07T02:36:41;35.40;;;21.90;;
76574;SDS011;65439;50.948;6.988;2023-04-07T02:39:07;37.33;;;22.48;;
76574;SDS011;65439;50.948;6.988;2023-04-07T02:41:33;45.38;;;23.63;;
76574;SDS011;65439;50.948;6.988;2023-04-07T02:43:58;40.20;;;24.40;;
76574;SDS011;65439;50.948;6.988;2023-04-07T02:46:23;48.60;;;24.83;;
76574;SDS011;65439;50.948;6.988;2023-04-07T02:48:49;39.78;;;20.60;;
76574;SDS011;65439;50.948;6.988;2023-04-07T02:51:14;44.17;;;25.37;;
76574;SDS011;65439;50.948;6.988;2023-04-07T02:53:39;46.92;;;23.30;;
76574;SDS011;65439;50.948;6.988;2023-04-07T02:56:06;42.63;;;23.05;;
76574;SDS011;65439;50.948;6.988;2023-04-07T02:58:31;45.22;;;23.88;;
76574;SDS011;65439;50.948;6.988;2023-04-07T03:00:56;44.00;;;22.80;;
76574;SDS011;65439;50.948;6.988;2023-04-07T03:03:22;44.37;;;22.23;;
76574;SDS011;65439;50.948;6.988;2023-04-07T03:05:47;41.45;;;22.88;;
76574;SDS011;65439;50.948;6.988;2023-04-07T03:08:12;41.93;;;21.77;;
76574;SDS011;65439;50.948;6.988;2023-04-07T03:10:38;43.22;;;25.35;;
76574;SDS011;65439;50.948;6.988;2023-04-07T03:13:03;43.28;;;23.30;;
76574;SDS011;65439;50.948;6.988;2023-04-07T03:15:28;48.00;;;23.98;;
76574;SDS011;65439;50.948;6.988;2023-04-07T03:17:54;49.28;;;24.02;;
76574;SDS011;65439;50.948;6.988;2023-04-07T03:20:19;47.53;;;21.53;;
76574;SDS011;65439;50.948;6.988;2023-04-07T03:22:45;47.03;;;23.93;;
76574;SDS011;65439;50.948;6.988;2023-04-07T03:25:11;47.65;;;23.65;;
76574;SDS011;65439;50.948;6.988;2023-04-07T03:27:36;51.53;;;23.88;;
76574;SDS011;65439;50.948;6.988;2023-04-07T03:30:02;47.35;;;24.92;;
76574;SDS011;65439;50.948;6.988;2023-04-07T03:32:28;54.30;;;24.85;;
76574;SDS011;65439;50.948;6.988;2023-04-07T03:35:11;51.75;;;25.33;;
76574;SDS011;65439;50.948;6.988;2023-04-07T03:37:42;49.42;;;23.35;;
76574;SDS011;65439;50.948;6.988;2023-04-07T03:40:07;48.50;;;23.25;;
76574;SDS011;65439;50.948;6.988;2023-04-07T03:42:42;51.20;;;23.92;;
76574;SDS011;65439;50.948;6.988;2023-04-07T03:45:07;49.70;;;22.70;;
76574;SDS011;65439;50.948;6.988;2023-04-07T03:47:42;48.22;;;23.63;;
76574;SDS011;65439;50.948;6.988;2023-04-07T03:50:10;51.28;;;26.38;;
76574;SDS011;65439;50.948;6.988;2023-04-07T03:52:35;47.20;;;22.37;;
76574;SDS011;65439;50.948;6.988;2023-04-07T03:55:01;46.60;;;26.33;;
76574;SDS011;65439;50.948;6.988;2023-04-07T03:57:26;50.73;;;23.97;;
76574;SDS011;65439;50.948;6.988;2023-04-07T03:59:51;51.78;;;24.10;;
76574;SDS011;65439;50.948;6.988;2023-04-07T04:02:17;46.45;;;23.63;;
76574;SDS011;65439;50.948;6.988;2023-04-07T04:04:43;44.45;;;24.45;;
76574;SDS011;65439;50.948;6.988;2023-04-07T04:07:08;44.38;;;22.83;;
76574;SDS011;65439;50.948;6.988;2023-04-07T04:09:33;43.00;;;23.97;;
76574;SDS011;65439;50.948;6.988;2023-04-07T04:11:59;46.83;;;24.38;;
76574;SDS011;65439;50.948;6.988;2023-04-07T04:14:25;45.13;;;23.17;;
76574;SDS011;65439;50.948;6.988;2023-04-07T04:16:50;46.15;;;23.17;;
76574;SDS011;65439;50.948;6.988;2023-04-07T04:19:15;53.17;;;24.10;;
76574;SDS011;65439;50.948;6.988;2023-04-07T04:21:41;43.50;;;23.05;;
76574;SDS011;65439;50.948;6.988;2023-04-07T04:24:06;42.43;;;20.70;;
76574;SDS011;65439;50.948;6.988;2023-04-07T04:26:31;35.47;;;19.40;;
76574;SDS011;65439;50.948;6.988;2023-04-07T04:28:56;44.13;;;24.67;;
76574;SDS011;65439;50.948;6.988;2023-04-07T04:31:22;38.40;;;21.80;;
76574;SDS011;65439;50.948;6.988;2023-04-07T04:33:47;40.80;;;20.13;;
76574;SDS011;65439;50.948;6.988;2023-04-07T04:36:13;43.40;;;22.13;;
76574;SDS011;65439;50.948;6.988;2023-04-07T04:38:39;46.70;;;24.88;;
76574;SDS011;65439;50.948;6.988;2023-04-07T04:41:04;48.17;;;25.92;;
76574;SDS011;65439;50.948;6.988;2023-04-07T04:43:30;51.70;;;25.77;;
76574;SDS011;65439;50.948;6.988;2023-04-07T04:45:55;59.47;;;24.75;;
76574;SDS011;65439;50.948;6.988;2023-04-07T04:48:21;41.38;;;21.77;;
76574;SDS011;65439;50.948;6.988;2023-04-07T04:50:47;45.65;;;22.75;;
76574;SDS011;65439;50.948;6.988;2023-04-07T04:53:12;47.83;;;25.60;;
76574;SDS011;65439;50.948;6.988;2023-04-07T04:55:37;48.50;;;23.35;;
76574;SDS011;65439;50.948;6.988;2023-04-07T04:58:04;46.58;;;21.02;;
76574;SDS011;65439;50.948;6.988;2023-04-07T05:00:30;49.55;;;23.83;;
76574;SDS011;65439;50.948;6.988;2023-04-07T05:02:55;46.57;;;22.40;;
76574;SDS011;65439;50.948;6.988;2023-04-07T05:05:21;40.28;;;19.50;;
76574;SDS011;65439;50.948;6.988;2023-04-07T05:07:46;38.30;;;19.77;;
76574;SDS011;65439;50.948;6.988;2023-04-07T05:10:11;50.60;;;21.13;;
76574;SDS011;65439;50.948;6.988;2023-04-07T05:12:36;39.28;;;19.63;;
76574;SDS011;65439;50.948;6.988;2023-04-07T05:15:02;40.60;;;19.90;;
76574;SDS011;65439;50.948;6.988;2023-04-07T05:17:27;45.25;;;20.25;;
76574;SDS011;65439;50.948;6.988;2023-04-07T05:19:52;54.40;;;24.07;;
76574;SDS011;65439;50.948;6.988;2023-04-07T05:22:18;49.23;;;23.70;;
76574;SDS011;65439;50.948;6.988;2023-04-07T05:24:43;43.53;;;22.57;;
76574;SDS011;65439;50.948;6.988;2023-04-07T05:27:08;46.20;;;22.70;;
76574;SDS011;65439;50.948;6.988;2023-04-07T05:29:34;44.65;;;23.33;;
76574;SDS011;65439;50.948;6.988;2023-04-07T05:31:59;44.50;;;23.33;;
76574;SDS011;65439;50.948;6.988;2023-04-07T05:34:25;41.50;;;19.73;;
76574;SDS011;65439;50.948;6.988;2023-04-07T05:36:51;41.10;;;19.15;;
76574;SDS011;65439;50.948;6.988;2023-04-07T05:39:16;38.22;;;18.70;;
76574;SDS011;65439;50.948;6.988;2023-04-07T05:41:42;33.97;;;17.53;;
76574;SDS011;65439;50.948;6.988;2023-04-07T05:44:07;32.73;;;16.80;;
76574;SDS011;65439;50.948;6.988;2023-04-07T05:46:32;39.70;;;19.03;;
76574;SDS011;65439;50.948;6.988;2023-04-07T05:48:58;34.20;;;17.17;;
76574;SDS011;65439;50.948;6.988;2023-04-07T05:51:23;31.47;;;16.67;;
76574;SDS011;65439;50.948;6.988;2023-04-07T05:53:48;30.00;;;15.47;;
76574;SDS011;65439;50.948;6.988;2023-04-07T05:56:13;35.33;;;17.53;;
76574;SDS011;65439;50.948;6.988;2023-04-07T05:58:39;27.25;;;13.95;;
76574;SDS011;65439;50.948;6.988;2023-04-07T06:01:04;32.95;;;14.70;;
76574;SDS011;65439;50.948;6.988;2023-04-07T06:03:30;31.10;;;14.57;;
76574;SDS011;65439;50.948;6.988;2023-04-07T06:05:56;23.92;;;13.82;;
76574;SDS011;65439;50.948;6.988;2023-04-07T06:08:22;32.42;;;13.48;;
76574;SDS011;65439;50.948;6.988;2023-04-07T06:10:47;26.80;;;15.13;;
76574;SDS011;65439;50.948;6.988;2023-04-07T06:13:12;29.97;;;15.87;;
76574;SDS011;65439;50.948;6.988;2023-04-07T06:15:38;28.33;;;14.45;;
76574;SDS011;65439;50.948;6.988;2023-04-07T06:18:03;28.77;;;15.17;;
76574;SDS011;65439;50.948;6.988;2023-04-07T06:20:28;23.13;;;11.60;;
76574;SDS011;65439;50.948;6.988;2023-04-07T06:22:54;24.47;;;12.97;;
76574;SDS011;65439;50.948;6.988;2023-04-07T06:25:19;33.13;;;14.17;;
76574;SDS011;65439;50.948;6.988;2023-04-07T06:27:45;29.35;;;15.02;;
76574;SDS011;65439;50.948;6.988;2023-04-07T06:30:11;28.80;;;14.15;;
76574;SDS011;65439;50.948;6.988;2023-04-07T06:32:36;31.83;;;14.18;;
76574;SDS011;65439;50.948;6.988;2023-04-07T06:35:01;31.63;;;14.23;;
76574;SDS011;65439;50.948;6.988;2023-04-07T06:37:27;24.42;;;12.48;;
76574;SDS011;65439;50.948;6.988;2023-04-07T06:39:52;29.98;;;13.68;;
76574;SDS011;65439;50.948;6.988;2023-04-07T06:42:18;23.77;;;13.13;;
76574;SDS011;65439;50.948;6.988;2023-04-07T06:44:43;27.17;;;12.73;;
76574;SDS011;65439;50.948;6.988;2023-04-07T06:47:08;22.23;;;11.93;;
76574;SDS011;65439;50.948;6.988;2023-04-07T06:49:34;20.80;;;12.03;;
76574;SDS011;65439;50.948;6.988;2023-04-07T06:51:59;23.05;;;9.98;;
76574;SDS011;65439;50.948;6.988;2023-04-07T06:54:25;20.20;;;9.52;;
76574;SDS011;65439;50.948;6.988;2023-04-07T06:56:50;19.70;;;8.83;;
76574;SDS011;65439;50.948;6.988;2023-04-07T06:59:15;15.52;;;8.80;;
76574;SDS011;65439;50.948;6.988;2023-04-07T07:01:41;17.98;;;9.10;;
76574;SDS011;65439;50.948;6.988;2023-04-07T07:04:07;17.42;;;9.68;;
76574;SDS011;65439;50.948;6.988;2023-04-07T07:06:32;17.43;;;8.47;;
76574;SDS011;65439;50.948;6.988;2023-04-07T07:08:58;19.13;;;8.27;;
76574;SDS011;65439;50.948;6.988;2023-04-07T07:11:24;13.13;;;7.97;;
76574;SDS011;65439;50.948;6.988;2023-04-07T07:13:50;16.58;;;7.65;;
76574;SDS011;65439;50.948;6.988;2023-04-07T07:16:15;14.33;;;8.27;;
76574;SDS011;65439;50.948;6.988;2023-04-07T07:18:40;13.20;;;7.32;;
76574;SDS011;65439;50.948;6.988;2023-04-07T07:21:06;12.97;;;7.57;;
76574;SDS011;65439;50.948;6.988;2023-04-07T07:23:32;14.32;;;6.95;;
76574;SDS011;65439;50.948;6.988;2023-04-07T07:25:57;17.08;;;7.70;;
76574;SDS011;65439;50.948;6.988;2023-04-07T07:28:23;15.60;;;8.00;;
76574;SDS011;65439;50.948;6.988;2023-04-07T07:30:48;15.80;;;8.63;;
76574;SDS011;65439;50.948;6.988;2023-04-07T07:33:13;17.73;;;8.20;;
76574;SDS011;65439;50.948;6.988;2023-04-07T07:35:39;18.50;;;8.35;;
76574;SDS011;65439;50.948;6.988;2023-04-07T07:38:05;10.68;;;6.75;;
76574;SDS011;65439;50.948;6.988;2023-04-07T07:40:30;13.32;;;7.50;;
76574;SDS011;65439;50.948;6.988;2023-04-07T07:42:56;11.32;;;7.28;;
76574;SDS011;65439;50.948;6.988;2023-04-07T07:45:21;11.37;;;6.40;;
76574;SDS011;65439;50.948;6.988;2023-04-07T07:47:46;14.67;;;6.87;;
76574;SDS011;65439;50.948;6.988;2023-04-07T07:50:11;14.50;;;7.78;;
76574;SDS011;65439;50.948;6.988;2023-04-07T07:52:37;14.93;;;6.10;;
76574;SDS011;65439;50.948;6.988;2023-04-07T07:55:02;14.40;;;6.50;;
76574;SDS011;65439;50.948;6.988;2023-04-07T07:57:28;11.15;;;6.22;;
76574;SDS011;65439;50.948;6.988;2023-04-07T07:59:55;23.70;;;8.40;;
76574;SDS011;65439;50.948;6.988;2023-04-07T08:02:20;12.07;;;6.73;;
76574;SDS011;65439;50.948;6.988;2023-04-07T08:04:45;11.87;;;6.30;;
76574;SDS011;65439;50.948;6.988;2023-04-07T08:07:10;11.23;;;6.50;;
76574;SDS011;65439;50.948;6.988;2023-04-07T08:09:36;12.18;;;7.10;;
76574;SDS011;65439;50.948;6.988;2023-04-07T08:12:02;12.05;;;7.60;;
76574;SDS011;65439;50.948;6.988;2023-04-07T08:14:27;13.45;;;6.70;;
76574;SDS011;65439;50.948;6.988;2023-04-07T08:16:53;16.42;;;8.18;;
76574;SDS011;65439;50.948;6.988;2023-04-07T08:19:18;15.17;;;8.03;;
76574;SDS011;65439;50.948;6.988;2023-04-07T08:21:43;12.07;;;7.80;;
76574;SDS011;65439;50.948;6.988;2023-04-07T08:24:09;14.87;;;7.37;;
76574;SDS011;65439;50.948;6.988;2023-04-07T08:26:34;13.70;;;7.65;;
76574;SDS011;65439;50.948;6.988;2023-04-07T08:29:00;13.77;;;7.90;;
76574;SDS011;65439;50.948;6.988;2023-04-07T08:31:25;16.27;;;8.43;;
76574;SDS011;65439;50.948;6.988;2023-04-07T08:33:51;13.38;;;8.00;;
76574;SDS011;65439;50.948;6.988;2023-04-07T08:36:21;13.50;;;7.60;;
76574;SDS011;65439;50.948;6.988;2023-04-07T08:38:46;13.80;;;8.50;;
76574;SDS011;65439;50.948;6.988;2023-04-07T08:41:12;16.00;;;8.80;;
76574;SDS011;65439;50.948;6.988;2023-04-07T08:43:42;16.00;;;7.53;;
76574;SDS011;65439;50.948;6.988;2023-04-07T08:46:09;15.98;;;8.15;;
76574;SDS011;65439;50.948;6.988;2023-04-07T08:48:36;14.95;;;8.10;;
76574;SDS011;65439;50.948;6.988;2023-04-07T08:51:03;17.05;;;9.40;;
76574;SDS011;65439;50.948;6.988;2023-04-07T08:53:33;14.63;;;7.95;;
76574;SDS011;65439;50.948;6.988;2023-04-07T08:56:00;12.18;;;7.20;;
76574;SDS011;65439;50.948;6.988;2023-04-07T08:58:26;18.73;;;8.98;;
76574;SDS011;65439;50.948;6.988;2023-04-07T09:00:51;13.30;;;7.87;;
76574;SDS011;65439;50.948;6.988;2023-04-07T09:03:16;14.52;;;8.73;;
76574;SDS011;65439;50.948;6.988;2023-04-07T09:05:43;16.45;;;8.93;;
76574;SDS011;65439;50.948;6.988;2023-04-07T09:08:10;14.07;;;9.10;;
76574;SDS011;65439;50.948;6.988;2023-04-07T09:10:35;15.57;;;7.90;;
76574;SDS011;65439;50.948;6.988;2023-04-07T09:13:01;16.05;;;8.85;;
76574;SDS011;65439;50.948;6.988;2023-04-07T09:15:29;14.00;;;9.02;;
76574;SDS011;65439;50.948;6.988;2023-04-07T09:17:56;13.95;;;7.63;;
76574;SDS011;65439;50.948;6.988;2023-04-07T09:20:22;14.35;;;9.23;;
76574;SDS011;65439;50.948;6.988;2023-04-07T09:22:47;15.15;;;8.05;;
76574;SDS011;65439;50.948;6.988;2023-04-07T09:27:59;15.80;;;8.23;;
76574;SDS011;65439;50.948;6.988;2023-04-07T09:30:26;16.13;;;8.25;;
76574;SDS011;65439;50.948;6.988;2023-04-07T09:32:52;13.35;;;8.23;;
76574;SDS011;65439;50.948;6.988;2023-04-07T09:35:17;17.27;;;8.47;;
76574;SDS011;65439;50.948;6.988;2023-04-07T09:37:42;13.07;;;7.88;;
76574;SDS011;65439;50.948;6.988;2023-04-07T09:40:08;17.13;;;8.88;;
76574;SDS011;65439;50.948;6.988;2023-04-07T09:42:34;12.25;;;7.95;;
76574;SDS011;65439;50.948;6.988;2023-04-07T09:45:01;15.43;;;8.02;;
76574;SDS011;65439;50.948;6.988;2023-04-07T09:47:30;11.45;;;6.90;;
76574;SDS011;65439;50.948;6.988;2023-04-07T09:49:56;11.65;;;8.13;;
76574;SDS011;65439;50.948;6.988;2023-04-07T09:52:24;13.50;;;8.73;;
76574;SDS011;65439;50.948;6.988;2023-04-07T09:54:50;18.50;;;10.38;;
76574;SDS011;65439;50.948;6.988;2023-04-07T09:57:16;14.07;;;7.97;;
76574;SDS011;65439;50.948;6.988;2023-04-07T09:59:43;12.15;;;7.68;;
76574;SDS011;65439;50.948;6.988;2023-04-07T10:02:12;12.60;;;7.30;;
76574;SDS011;65439;50.948;6.988;2023-04-07T10:04:38;14.30;;;7.47;;
76574;SDS011;65439;50.948;6.988;2023-04-07T10:07:05;13.90;;;8.27;;
76574;SDS011;65439;50.948;6.988;2023-04-07T10:09:30;11.93;;;7.45;;
76574;SDS011;65439;50.948;6.988;2023-04-07T10:11:56;16.17;;;8.52;;
76574;SDS011;65439;50.948;6.988;2023-04-07T10:14:27;13.45;;;8.27;;
76574;SDS011;65439;50.948;6.988;2023-04-07T10:16:54;16.08;;;9.10;;
76574;SDS011;65439;50.948;6.988;2023-04-07T10:19:21;14.65;;;7.57;;
76574;SDS011;65439;50.948;6.988;2023-04-07T10:21:47;13.90;;;8.50;;
76574;SDS011;65439;50.948;6.988;2023-04-07T10:24:25;13.48;;;8.55;;
76574;SDS011;65439;50.948;6.988;2023-04-07T10:26:59;14.13;;;7.97;;
76574;SDS011;65439;50.948;6.988;2023-04-07T10:29:31;17.52;;;8.23;;
76574;SDS011;65439;50.948;6.988;2023-04-07T10:32:00;15.27;;;8.02;;
76574;SDS011;65439;50.948;6.988;2023-04-07T10:37:19;21.50;;;9.68;;
76574;SDS011;65439;50.948;6.988;2023-04-07T10:39:50;18.33;;;11.23;;
76574;SDS011;65439;50.948;6.988;2023-04-07T10:45:04;21.70;;;9.48;;
76574;SDS011;65439;50.948;6.988;2023-04-07T10:47:33;18.38;;;10.05;;
76574;SDS011;65439;50.948;6.988;2023-04-07T10:50:16;15.60;;;10.77;;
76574;SDS011;65439;50.948;6.988;2023-04-07T10:52:43;19.52;;;10.93;;
76574;SDS011;65439;50.948;6.988;2023-04-07T10:55:28;24.42;;;11.52;;
76574;SDS011;65439;50.948;6.988;2023-04-07T11:00:39;16.13;;;10.18;;
76574;SDS011;65439;50.948;6.988;2023-04-07T11:03:11;22.73;;;11.60;;
76574;SDS011;65439;50.948;6.988;2023-04-07T11:05:40;16.52;;;9.07;;
76574;SDS011;65439;50.948;6.988;2023-04-07T11:08:05;18.45;;;9.88;;
76574;SDS011;65439;50.948;6.988;2023-04-07T11:10:31;21.00;;;11.93;;
76574;SDS011;65439;50.948;6.988;2023-04-07T11:13:00;22.02;;;11.55;;
76574;SDS011;65439;50.948;6.988;2023-04-07T11:15:26;18.58;;;10.88;;
76574;SDS011;65439;50.948;6.988;2023-04-07T11:20:42;19.45;;;10.50;;
76574;SDS011;65439;50.948;6.988;2023-04-07T11:23:18;22.23;;;11.95;;
76574;SDS011;65439;50.948;6.988;2023-04-07T11:25:45;20.20;;;10.45;;
76574;SDS011;65439;50.948;6.988;2023-04-07T11:28:12;20.63;;;9.98;;
76574;SDS011;65439;50.948;6.988;2023-04-07T11:30:37;22.20;;;10.35;;
76574;SDS011;65439;50.948;6.988;2023-04-07T11:33:03;21.45;;;10.65;;
76574;SDS011;65439;50.948;6.988;2023-04-07T11:35:28;22.67;;;10.93;;
76574;SDS011;65439;50.948;6.988;2023-04-07T11:37:57;18.48;;;10.00;;
76574;SDS011;65439;50.948;6.988;2023-04-07T11:40:30;17.73;;;10.40;;
76574;SDS011;65439;50.948;6.988;2023-04-07T11:42:59;19.75;;;10.82;;
76574;SDS011;65439;50.948;6.988;2023-04-07T11:45:25;18.52;;;10.00;;
76574;SDS011;65439;50.948;6.988;2023-04-07T11:47:51;20.17;;;11.02;;
76574;SDS011;65439;50.948;6.988;2023-04-07T11:50:16;17.88;;;10.98;;
76574;SDS011;65439;50.948;6.988;2023-04-07T11:53:02;19.85;;;9.43;;
76574;SDS011;65439;50.948;6.988;2023-04-07T11:55:27;21.92;;;10.40;;
76574;SDS011;65439;50.948;6.988;2023-04-07T11:57:53;18.45;;;10.40;;
76574;SDS011;65439;50.948;6.988;2023-04-07T12:00:19;16.00;;;9.47;;
76574;SDS011;65439;50.948;6.988;2023-04-07T12:02:45;15.00;;;9.15;;
76574;SDS011;65439;50.948;6.988;2023-04-07T12:05:10;17.27;;;9.30;;
76574;SDS011;65439;50.948;6.988;2023-04-07T12:07:36;14.25;;;9.50;;
76574;SDS011;65439;50.948;6.988;2023-04-07T12:10:18;18.75;;;9.18;;
76574;SDS011;65439;50.948;6.988;2023-04-07T12:12:47;16.60;;;9.20;;
76574;SDS011;65439;50.948;6.988;2023-04-07T12:15:13;13.15;;;8.77;;
76574;SDS011;65439;50.948;6.988;2023-04-07T12:17:42;14.50;;;9.75;;
76574;SDS011;65439;50.948;6.988;2023-04-07T12:20:09;15.82;;;8.18;;
76574;SDS011;65439;50.948;6.988;2023-04-07T12:22:35;35.72;;;15.35;;
76574;SDS011;65439;50.948;6.988;2023-04-07T12:25:00;16.35;;;9.88;;
76574;SDS011;65439;50.948;6.988;2023-04-07T12:27:26;12.30;;;7.73;;
76574;SDS011;65439;50.948;6.988;2023-04-07T12:29:51;12.20;;;7.30;;
76574;SDS011;65439;50.948;6.988;2023-04-07T12:32:17;14.00;;;8.77;;
76574;SDS011;65439;50.948;6.988;2023-04-07T12:34:43;20.52;;;7.80;;
76574;SDS011;65439;50.948;6.988;2023-04-07T12:37:08;16.20;;;10.55;;
76574;SDS011;65439;50.948;6.988;2023-04-07T12:39:33;19.40;;;10.00;;
76574;SDS011;65439;50.948;6.988;2023-04-07T12:41:59;17.85;;;8.63;;
76574;SDS011;65439;50.948;6.988;2023-04-07T12:44:24;13.77;;;7.43;;
76574;SDS011;65439;50.948;6.988;2023-04-07T12:46:50;17.25;;;8.63;;
76574;SDS011;65439;50.948;6.988;2023-04-07T12:49:15;12.35;;;8.50;;
76574;SDS011;65439;50.948;6.988;2023-04-07T12:51:40;9.10;;;5.80;;
76574;SDS011;65439;50.948;6.988;2023-04-07T12:54:05;9.20;;;6.37;;
76574;SDS011;65439;50.948;6.988;2023-04-07T12:56:31;14.25;;;6.65;;
76574;SDS011;65439;50.948;6.988;2023-04-07T12:58:56;13.77;;;8.60;;
76574;SDS011;65439;50.948;6.988;2023-04-07T13:01:22;13.90;;;9.10;;
76574;SDS011;65439;50.948;6.988;2023-04-07T13:03:47;11.20;;;8.87;;
76574;SDS011;65439;50.948;6.988;2023-04-07T13:06:12;12.43;;;7.27;;
76574;SDS011;65439;50.948;6.988;2023-04-07T13:08:38;13.17;;;7.10;;
76574;SDS011;65439;50.948;6.988;2023-04-07T13:11:03;12.02;;;8.30;;
76574;SDS011;65439;50.948;6.988;2023-04-07T13:13:29;13.13;;;7.70;;
76574;SDS011;65439;50.948;6.988;2023-04-07T13:15:55;18.75;;;9.70;;
76574;SDS011;65439;50.948;6.988;2023-04-07T13:18:20;16.70;;;9.85;;
76574;SDS011;65439;50.948;6.988;2023-04-07T13:20:46;18.47;;;10.87;;
76574;SDS011;65439;50.948;6.988;2023-04-07T13:23:11;16.42;;;10.45;;
76574;SDS011;65439;50.948;6.988;2023-04-07T13:25:37;17.20;;;10.43;;
76574;SDS011;65439;50.948;6.988;2023-04-07T13:28:02;16.77;;;10.57;;
76574;SDS011;65439;50.948;6.988;2023-04-07T13:30:27;15.40;;;10.70;;
76574;SDS011;65439;50.948;6.988;2023-04-07T13:32:52;17.70;;;9.70;;
76574;SDS011;65439;50.948;6.988;2023-04-07T13:35:18;17.30;;;9.93;;
76574;SDS011;65439;50.948;6.988;2023-04-07T13:37:43;19.67;;;10.03;;
76574;SDS011;65439;50.948;6.988;2023-04-07T13:40:09;20.30;;;10.30;;
76574;SDS011;65439;50.948;6.988;2023-04-07T13:42:36;14.02;;;10.18;;
76574;SDS011;65439;50.948;6.988;2023-04-07T13:45:01;16.63;;;9.83;;
76574;SDS011;65439;50.948;6.988;2023-04-07T13:47:27;14.40;;;9.80;;
76574;SDS011;65439;50.948;6.988;2023-04-07T13:49:54;18.58;;;10.88;;
76574;SDS011;65439;50.948;6.988;2023-04-07T13:52:19;19.65;;;9.77;;
76574;SDS011;65439;50.948;6.988;2023-04-07T13:54:45;15.40;;;9.10;;
76574;SDS011;65439;50.948;6.988;2023-04-07T13:57:11;13.50;;;8.38;;
76574;SDS011;65439;50.948;6.988;2023-04-07T13:59:41;13.73;;;8.73;;
76574;SDS011;65439;50.948;6.988;2023-04-07T14:02:06;13.27;;;9.00;;
76574;SDS011;65439;50.948;6.988;2023-04-07T14:04:32;15.57;;;9.03;;
76574;SDS011;65439;50.948;6.988;2023-04-07T14:07:03;13.18;;;9.20;;
76574;SDS011;65439;50.948;6.988;2023-04-07T14:09:28;15.43;;;10.43;;
76574;SDS011;65439;50.948;6.988;2023-04-07T14:11:53;13.60;;;9.68;;
76574;SDS011;65439;50.948;6.988;2023-04-07T14:14:19;14.75;;;9.77;;
76574;SDS011;65439;50.948;6.988;2023-04-07T14:16:44;17.93;;;12.07;;
76574;SDS011;65439;50.948;6.988;2023-04-07T14:19:17;16.20;;;9.48;;
76574;SDS011;65439;50.948;6.988;2023-04-07T14:21:44;15.45;;;9.35;;
76574;SDS011;65439;50.948;6.988;2023-04-07T14:24:09;17.70;;;7.60;;
76574;SDS011;65439;50.948;6.988;2023-04-07T14:26:35;11.83;;;7.87;;
76574;SDS011;65439;50.948;6.988;2023-04-07T14:29:00;15.85;;;9.27;;
76574;SDS011;65439;50.948;6.988;2023-04-07T14:31:26;14.18;;;8.77;;
76574;SDS011;65439;50.948;6.988;2023-04-07T14:33:51;21.50;;;10.07;;
76574;SDS011;65439;50.948;6.988;2023-04-07T14:36:16;13.88;;;9.45;;
76574;SDS011;65439;50.948;6.988;2023-04-07T14:38:42;14.13;;;10.43;;
76574;SDS011;65439;50.948;6.988;2023-04-07T14:41:08;15.25;;;9.60;;